Estación de Odessa
Ultimos registro cada 15 minutos 65
| N° | Estación | Fecha / Hora | Temperatura | Humedad | Lluvia | Velocidad | Dirección | Radiación | Presion |
| 65 | Odessa | 04-05-2026 16:00 | 16,3 | 75 | 0 | 0 | 241 | 60 | 1016,4 |
| 64 | Odessa | 04-05-2026 15:45 | 16,7 | 72 | 0 | 0 | 241 | 70 | 1016,6 |
| 63 | Odessa | 04-05-2026 15:30 | 16,9 | 71 | 0 | 0 | 241 | 83 | 1016,7 |
| 62 | Odessa | 04-05-2026 15:15 | 17 | 70 | 0 | 0 | 241 | 95 | 1017 |
| 61 | Odessa | 04-05-2026 15:00 | 17,1 | 67 | 0 | 0 | 289 | 128 | 1017,1 |
| 60 | Odessa | 04-05-2026 14:45 | 17,2 | 65 | 0 | 0,9 | 270 | 165 | 1017,4 |
| 59 | Odessa | 04-05-2026 14:30 | 17,2 | 61 | 0 | 0,4 | 219 | 209 | 1017,6 |
| 58 | Odessa | 04-05-2026 14:15 | 17,1 | 64 | 0 | 0,4 | 187 | 223 | 1017,6 |
| 57 | Odessa | 04-05-2026 14:00 | 17,2 | 66 | 0 | 0,4 | 177 | 237 | 1017,9 |
| 56 | Odessa | 04-05-2026 13:45 | 16,9 | 67 | 0 | 0 | 68 | 272 | 1018,1 |
| 55 | Odessa | 04-05-2026 13:30 | 16,4 | 66 | 0 | 0 | 158 | 269 | 1018,2 |
| 54 | Odessa | 04-05-2026 13:15 | 15,9 | 69 | 0 | 0 | 163 | 295 | 1018,7 |
| 53 | Odessa | 04-05-2026 13:00 | 15,6 | 69 | 0 | 0,4 | 187 | 302 | 1018,8 |
| 52 | Odessa | 04-05-2026 12:45 | 15,2 | 71 | 0 | 0,4 | 201 | 246 | 1018,9 |
| 51 | Odessa | 04-05-2026 12:30 | 15,2 | 73 | 0 | 1,8 | 214 | 229 | 1019,2 |
| 50 | Odessa | 04-05-2026 12:15 | 15,1 | 73 | 0 | 0,9 | 211 | 230 | 1019,4 |
| 49 | Odessa | 04-05-2026 12:00 | 14,8 | 73 | 0 | 0 | 197 | 225 | 1019,4 |
| 48 | Odessa | 04-05-2026 11:45 | 14,4 | 74 | 0 | 0,9 | 208 | 232 | 1019,2 |
| 47 | Odessa | 04-05-2026 11:30 | 14,2 | 75 | 0 | 0,9 | 187 | 183 | 1019 |
| 46 | Odessa | 04-05-2026 11:15 | 14 | 75 | 0 | 0,4 | 234 | 153 | 1019,1 |
| 45 | Odessa | 04-05-2026 11:00 | 13,6 | 79 | 0 | 0 | 233 | 199 | 1019,1 |
| 44 | Odessa | 04-05-2026 10:45 | 13,2 | 81 | 0 | 0 | 224 | 171 | 1019,1 |
| 43 | Odessa | 04-05-2026 10:30 | 12,9 | 82 | 0 | 0 | 137 | 118 | 1019 |
| 42 | Odessa | 04-05-2026 10:15 | 12,7 | 83 | 0 | 0 | 137 | 97 | 1018,8 |
| 41 | Odessa | 04-05-2026 10:00 | 12,2 | 85 | 0 | 0,4 | 137 | 118 | 1018,8 |
| 40 | Odessa | 04-05-2026 09:45 | 11,5 | 88 | 0 | 0 | 144 | 125 | 1018,8 |
| 39 | Odessa | 04-05-2026 09:30 | 10,9 | 90 | 0 | 0 | 66 | 86 | 1018,8 |
| 38 | Odessa | 04-05-2026 09:15 | 10,4 | 92 | 0 | 0 | 66 | 121 | 1018,7 |
| 37 | Odessa | 04-05-2026 09:00 | 9,8 | 92 | 0 | 0 | 66 | 79 | 1018,6 |
| 36 | Odessa | 04-05-2026 08:45 | 9,2 | 93 | 0 | 0 | 66 | 56 | 1018,2 |
| 35 | Odessa | 04-05-2026 08:30 | 8,8 | 92 | 0 | 0 | 66 | 46 | 1018 |
| 34 | Odessa | 04-05-2026 08:15 | 8,4 | 92 | 0 | 0 | 66 | 26 | 1018,1 |
| 33 | Odessa | 04-05-2026 08:00 | 8,1 | 92 | 0 | 0 | 99 | 19 | 1018,1 |
| 32 | Odessa | 04-05-2026 07:45 | 7,9 | 92 | 0 | 0 | 99 | 11 | 1018,2 |
| 31 | Odessa | 04-05-2026 07:30 | 7,7 | 92 | 0 | 0 | 99 | 0 | 1018,2 |
| 30 | Odessa | 04-05-2026 07:15 | 7,7 | 92 | 0 | 0 | 99 | 0 | 1018,1 |
| 29 | Odessa | 04-05-2026 07:00 | 7,4 | 92 | 0 | 0 | 99 | 0 | 1018,1 |
| 28 | Odessa | 04-05-2026 06:45 | 7,5 | 92 | 0 | 0 | 99 | 0 | 1018,3 |
| 27 | Odessa | 04-05-2026 06:30 | 7,8 | 92 | 0 | 0 | 99 | 0 | 1018,1 |
| 26 | Odessa | 04-05-2026 06:15 | 8,1 | 92 | 0 | 0 | 99 | 0 | 1017,7 |
| 25 | Odessa | 04-05-2026 06:00 | 8,1 | 92 | 0 | 0 | 99 | 0 | 1017,5 |
| 24 | Odessa | 04-05-2026 05:45 | 8,2 | 92 | 0 | 0 | 99 | 0 | 1017,4 |
| 23 | Odessa | 04-05-2026 05:30 | 8,4 | 92 | 0 | 0 | 99 | 0 | 1017,5 |
| 22 | Odessa | 04-05-2026 05:15 | 8,5 | 92 | 0 | 0 | 99 | 0 | 1017,9 |
| 21 | Odessa | 04-05-2026 05:00 | 8,8 | 91 | 0 | 0 | 83 | 0 | 1017,7 |
| 20 | Odessa | 04-05-2026 04:45 | 9,3 | 91 | 0 | 0 | 83 | 0 | 1017,6 |
| 19 | Odessa | 04-05-2026 04:30 | 9,6 | 91 | 0 | 0 | 83 | 0 | 1017,6 |
| 18 | Odessa | 04-05-2026 04:15 | 9,7 | 90 | 0 | 0 | 83 | 0 | 1017,9 |
| 17 | Odessa | 04-05-2026 04:00 | 9,8 | 90 | 0 | 0 | 83 | 0 | 1017,9 |
| 16 | Odessa | 04-05-2026 03:45 | 10,1 | 89 | 0 | 0 | 83 | 0 | 1017,7 |
| 15 | Odessa | 04-05-2026 03:30 | 10,3 | 89 | 0 | 0 | 83 | 0 | 1017,7 |
| 14 | Odessa | 04-05-2026 03:15 | 10,7 | 88 | 0 | 0 | 118 | 0 | 1017,8 |
| 13 | Odessa | 04-05-2026 03:00 | 10,6 | 88 | 0 | 0 | 118 | 0 | 1018,1 |
| 12 | Odessa | 04-05-2026 02:45 | 10,3 | 88 | 0 | 0 | 114 | 0 | 1018,3 |
| 11 | Odessa | 04-05-2026 02:30 | 10,3 | 87 | 0 | 0,4 | 137 | 0 | 1018,6 |
| 10 | Odessa | 04-05-2026 02:15 | 10,4 | 86 | 0 | 0 | 20 | 0 | 1018,7 |
| 9 | Odessa | 04-05-2026 02:00 | 10,6 | 86 | 0 | 0 | 20 | 0 | 1018,9 |
| 8 | Odessa | 04-05-2026 01:45 | 10,7 | 85 | 0 | 0 | 20 | 0 | 1018,7 |
| 7 | Odessa | 04-05-2026 01:30 | 10,9 | 84 | 0 | 0 | 20 | 0 | 1018,6 |
| 6 | Odessa | 04-05-2026 01:15 | 11,1 | 83 | 0 | 0 | 20 | 0 | 1018,7 |
| 5 | Odessa | 04-05-2026 01:00 | 11,4 | 82 | 0 | 0 | 20 | 0 | 1018,7 |
| 4 | Odessa | 04-05-2026 00:45 | 11,6 | 82 | 0 | 0 | 78 | 0 | 1018,9 |
| 3 | Odessa | 04-05-2026 00:30 | 12 | 81 | 0 | 0 | 108 | 0 | 1019 |
| 2 | Odessa | 04-05-2026 00:15 | 12,1 | 82 | 0 | 0 | 124 | 0 | 1019,2 |
| 1 | Odessa | 04-05-2026 00:00 | 11,8 | 84 | 0 | 0,9 | 113 | 0 | 1019,4 |